Terminal Aerodrome Forecast
Issued by NWS Blacksburg, VA

Home | Current Version | Previous Version | Text Only | Print | Product List | Glossary On
Versions: 1 2 3 4 5 6 7 8 9 10 11 12 13 14
000
FTUS41 KRNK 230520
TAFROA
TAF
KROA 230520Z 2306/2406 16006KT P6SM VCSH OVC015 WS020/19040KT
     FM230900 18008KT 4SM SHRA OVC020 WS020/20040KT
     FM231100 23007KT P6SM VCSH BKN025
     FM231300 25008KT P6SM SCT035
     FM231500 26012G20KT P6SM SCT250
     FM240000 29014KT P6SM FEW040=

USA.gov is the U.S. government's official web portal to all federal, state and local government web resources and services.